Eisenach-Kindel Airport EDGE

Flugplatz Daten

Name: Eisenach-Kindel Airport

Ident: EDGE

Lat: 50,99277878

Long: 10,47277832

Platzhöhe: 1112 ft

IataCode:

City: Eisenach

Homepage: http://www.flugplatz-eisenach.de/

Metar

2022/08/04 18:00
CYED 041800Z 28003KT 070V320 15SM BKN020 BKN040 OVC070 14/13 A2966 RMK SC6SC1AC1 DENSITY ALT 3173FT RAG EDGES SLP047

Taf

Gewünschte Webcam nicht vorhanden? Dann fügen Sie eine hinzu. Sie wird dann so schnell wie möglich freigeschaltet
Url: Title: